createdAt,value
2019-05-05T00:00:49.761Z,10.3
2019-05-05T00:02:49.788Z,10.7
2019-05-05T00:04:50.264Z,10.6
2019-05-05T00:06:49.542Z,10.4
2019-05-05T00:08:49.595Z,10.4
2019-05-05T00:10:49.685Z,10.3
2019-05-05T00:12:49.766Z,10.1
2019-05-05T00:14:49.842Z,11.6
2019-05-05T00:16:50.118Z,10.2
2019-05-05T00:18:50.282Z,10.2
2019-05-05T00:20:50.281Z,10.6
2019-05-05T00:22:50.387Z,10.5
2019-05-05T00:24:49.460Z,10.3
2019-05-05T00:26:49.700Z,10.3
2019-05-05T00:28:49.769Z,10.3
2019-05-05T00:30:49.889Z,9.7
2019-05-05T00:32:49.957Z,10.3
2019-05-05T00:34:49.435Z,10.3
2019-05-05T00:36:49.580Z,9.3
2019-05-05T00:38:49.639Z,9.3
2019-05-05T00:40:49.643Z,9.6
2019-05-05T00:42:49.761Z,10.2
2019-05-05T00:44:49.904Z,10.0
2019-05-05T00:46:50.047Z,9.8
2019-05-05T00:48:50.145Z,9.8
2019-05-05T00:50:51.852Z,10.6
2019-05-05T00:52:50.042Z,10.3
2019-05-05T00:54:50.088Z,10.5
2019-05-05T00:56:50.355Z,10.5
2019-05-05T00:58:49.475Z,11.2
2019-05-05T01:00:49.535Z,11.1
2019-05-05T01:02:49.710Z,11.1
2019-05-05T01:04:50.121Z,10.4
2019-05-05T01:06:50.309Z,10.4
2019-05-05T01:08:50.413Z,9.7
2019-05-05T01:10:50.373Z,11.7
2019-05-05T01:12:49.535Z,14.7
2019-05-05T01:14:49.757Z,10.9
2019-05-05T01:16:49.937Z,10.9
2019-05-05T01:18:50.103Z,11.6
2019-05-05T01:20:50.165Z,11.0
2019-05-05T01:22:50.180Z,11.0
2019-05-05T01:24:50.226Z,12.0
2019-05-05T01:26:49.471Z,12.0
2019-05-05T01:28:49.523Z,11.8
2019-05-05T01:30:49.609Z,12.0
2019-05-05T01:32:49.707Z,12.0
2019-05-05T01:34:50.148Z,11.6
2019-05-05T01:36:50.291Z,12.4
2019-05-05T01:38:50.406Z,12.2
2019-05-05T01:40:49.453Z,13.2
2019-05-05T01:42:49.901Z,13.2
2019-05-05T01:44:49.979Z,15.3
2019-05-05T01:46:50.123Z,12.8
2019-05-05T01:48:50.277Z,14.1
2019-05-05T01:50:50.319Z,14.6
2019-05-05T01:52:50.323Z,15.2
2019-05-05T01:54:50.371Z,15.2
2019-05-05T01:56:52.263Z,15.4
2019-05-05T01:58:50.420Z,15.4
2019-05-05T02:00:49.460Z,16.7
2019-05-05T02:02:49.634Z,17.3
2019-05-05T02:04:50.135Z,17.3
2019-05-05T02:06:49.449Z,16.1
2019-05-05T02:08:49.956Z,16.2
2019-05-05T02:10:50.032Z,16.3
2019-05-05T02:12:50.108Z,16.4
2019-05-05T02:14:50.116Z,16.4
2019-05-05T02:16:50.413Z,15.9
2019-05-05T02:18:50.424Z,17.1
2019-05-05T02:20:49.493Z,15.6
2019-05-05T02:22:49.502Z,15.6
2019-05-05T02:24:49.648Z,15.5
2019-05-05T02:26:49.886Z,16.2
2019-05-05T02:28:49.947Z,15.8
2019-05-05T02:30:50.013Z,16.2
2019-05-05T02:32:50.115Z,16.6
2019-05-05T02:34:49.652Z,16.6
2019-05-05T02:36:49.846Z,17.1
2019-05-05T02:38:50.055Z,17.1
2019-05-05T02:40:50.198Z,18.5
2019-05-05T02:42:50.309Z,18.5
2019-05-05T02:44:50.413Z,18.8
2019-05-05T02:46:49.695Z,17.6
2019-05-05T02:48:50.140Z,18.8
2019-05-05T02:50:55.835Z,19.4
2019-05-05T02:52:49.830Z,19.4
2019-05-05T02:54:49.874Z,18.1
2019-05-05T02:56:50.157Z,18.2
2019-05-05T02:58:50.204Z,17.6
2019-05-05T03:00:50.246Z,17.2
2019-05-05T03:02:50.350Z,17.2
2019-05-05T03:04:49.721Z,17.0
2019-05-05T03:06:50.003Z,16.6
2019-05-05T03:08:50.108Z,16.8
2019-05-05T03:10:50.212Z,16.8
2019-05-05T03:12:50.358Z,16.5
2019-05-05T03:14:49.464Z,16.9
2019-05-05T03:16:49.682Z,15.7
2019-05-05T03:18:49.751Z,16.5
2019-05-05T03:21:01.489Z,16.5
2019-05-05T03:22:50.200Z,17.0
2019-05-05T03:24:50.309Z,17.0
2019-05-05T03:26:49.544Z,17.4
2019-05-05T03:28:49.650Z,17.8
2019-05-05T03:30:49.696Z,17.8
2019-05-05T03:32:49.788Z,19.0
2019-05-05T03:34:50.195Z,19.3
2019-05-05T03:36:50.353Z,18.5
2019-05-05T03:38:50.405Z,18.5
2019-05-05T03:40:50.419Z,19.1
2019-05-05T03:42:49.583Z,16.8
2019-05-05T03:44:49.517Z,17.2
2019-05-05T03:46:49.806Z,17.1
2019-05-05T03:48:50.010Z,17.2
2019-05-05T03:50:50.067Z,17.2
2019-05-05T03:52:50.032Z,19.1
2019-05-05T03:54:50.118Z,16.4
2019-05-05T03:56:50.324Z,16.4
2019-05-05T03:58:50.425Z,16.4
2019-05-05T04:00:49.582Z,15.8
2019-05-05T04:02:49.578Z,15.9
2019-05-05T04:04:50.035Z,14.8
2019-05-05T04:06:50.182Z,14.8
2019-05-05T04:08:50.305Z,14.8
2019-05-05T04:10:50.324Z,15.0
2019-05-05T04:12:50.405Z,14.4
2019-05-05T04:14:49.521Z,14.4
2019-05-05T04:16:49.787Z,14.5
2019-05-05T04:18:49.819Z,14.5
2019-05-05T04:20:49.904Z,14.3
2019-05-05T04:22:50.040Z,13.5
2019-05-05T04:24:50.089Z,13.5
2019-05-05T04:26:49.801Z,14.0
2019-05-05T04:28:49.822Z,14.0
2019-05-05T04:30:49.903Z,14.0
2019-05-05T04:32:49.914Z,13.5
2019-05-05T04:34:49.542Z,13.1
2019-05-05T04:36:49.662Z,13.8
2019-05-05T04:38:49.872Z,13.8
2019-05-05T04:40:49.856Z,12.9
2019-05-05T04:42:49.938Z,12.9
2019-05-05T04:44:50.014Z,12.3
2019-05-05T04:46:50.234Z,12.3
2019-05-05T04:48:50.339Z,11.8
2019-05-05T04:50:50.363Z,10.9
2019-05-05T04:52:50.370Z,10.9
2019-05-05T04:54:49.502Z,10.9
2019-05-05T04:56:49.744Z,10.8
2019-05-05T04:58:49.828Z,10.3
2019-05-05T05:00:49.911Z,9.7
2019-05-05T05:02:49.999Z,10.5
2019-05-05T05:04:49.676Z,9.7
2019-05-05T05:06:49.911Z,9.7
2019-05-05T05:08:50.054Z,9.3
2019-05-05T05:10:50.152Z,10.0
2019-05-05T05:12:50.182Z,9.9
2019-05-05T05:14:50.282Z,9.7
2019-05-05T05:16:49.462Z,9.7
2019-05-05T05:18:49.576Z,9.7
2019-05-05T05:20:49.545Z,9.3
2019-05-05T05:22:49.670Z,9.3
2019-05-05T05:24:49.755Z,8.7
2019-05-05T05:26:49.949Z,9.4
2019-05-05T05:28:49.899Z,9.7
2019-05-05T05:30:49.951Z,9.7
2019-05-05T05:32:49.984Z,9.0
2019-05-05T05:34:50.402Z,10.0
2019-05-05T05:36:49.486Z,10.0
2019-05-05T05:38:49.579Z,10.6
2019-05-05T05:40:49.633Z,10.9
2019-05-05T05:42:49.669Z,9.6
2019-05-05T05:44:49.729Z,9.6
2019-05-05T05:46:49.948Z,10.2
2019-05-05T05:48:49.540Z,8.2
2019-05-05T05:50:49.687Z,7.6
2019-05-05T05:52:49.644Z,7.5
2019-05-05T05:54:49.776Z,7.5
2019-05-05T05:56:49.916Z,7.0
2019-05-05T05:58:49.936Z,8.0
2019-05-05T06:00:50.015Z,8.2
2019-05-05T06:02:50.096Z,7.6
2019-05-05T06:04:49.587Z,7.6
2019-05-05T06:06:49.715Z,7.7
2019-05-05T06:08:49.798Z,8.0
2019-05-05T06:10:49.868Z,7.3
2019-05-05T06:12:49.965Z,7.4
2019-05-05T06:14:49.972Z,7.4
2019-05-05T06:16:50.174Z,7.0
2019-05-05T06:18:50.160Z,7.5
2019-05-05T06:20:50.163Z,7.4
2019-05-05T06:22:50.304Z,7.2
2019-05-05T06:24:50.407Z,7.2
2019-05-05T06:26:49.674Z,7.4
2019-05-05T06:28:49.761Z,7.4
2019-05-05T06:30:49.846Z,6.9
2019-05-05T06:32:49.886Z,6.9
2019-05-05T06:34:50.288Z,6.8
2019-05-05T06:36:50.381Z,6.4
2019-05-05T06:38:49.513Z,6.6
2019-05-05T06:40:49.631Z,6.5
2019-05-05T06:42:50.139Z,6.5
2019-05-05T06:44:50.193Z,6.4
2019-05-05T06:46:49.477Z,6.7
2019-05-05T06:48:49.506Z,6.6
2019-05-05T06:50:49.640Z,6.5
2019-05-05T06:52:49.757Z,6.5
2019-05-05T06:54:49.929Z,6.0
2019-05-05T06:56:50.062Z,5.7
2019-05-05T06:58:50.126Z,5.9
2019-05-05T07:00:50.172Z,5.9
2019-05-05T07:02:50.227Z,6.0
2019-05-05T07:04:49.638Z,5.4
2019-05-05T07:06:53.911Z,5.3
2019-05-05T07:08:50.172Z,5.5
2019-05-05T07:10:50.278Z,5.8
2019-05-05T07:12:50.308Z,5.8
2019-05-05T07:14:50.310Z,5.7
2019-05-05T07:16:49.478Z,5.8
2019-05-05T07:18:49.565Z,5.8
2019-05-05T07:20:49.661Z,5.8
2019-05-05T07:22:59.446Z,5.6
2019-05-05T07:24:49.861Z,6.2
2019-05-05T07:26:49.961Z,6.1
2019-05-05T07:28:50.049Z,6.1
2019-05-05T07:30:50.136Z,6.0
2019-05-05T07:32:50.443Z,6.0
2019-05-05T07:34:49.945Z,5.8
2019-05-05T07:36:50.351Z,5.2
2019-05-05T07:38:50.349Z,5.2
2019-05-05T07:40:49.542Z,5.9
2019-05-05T07:42:49.520Z,4.9
2019-05-05T07:44:49.582Z,5.2
2019-05-05T07:46:49.704Z,4.6
2019-05-05T07:48:49.807Z,5.0
2019-05-05T07:50:59.645Z,5.0
2019-05-05T07:52:49.947Z,4.8
2019-05-05T07:54:49.931Z,4.9
2019-05-05T07:56:50.073Z,4.8
2019-05-05T07:58:50.089Z,4.6
2019-05-05T08:00:50.229Z,4.6
2019-05-05T08:02:50.285Z,4.8
2019-05-05T08:04:49.761Z,4.4
2019-05-05T08:06:49.936Z,4.4
2019-05-05T08:08:50.094Z,4.8
2019-05-05T08:10:50.129Z,5.5
2019-05-05T08:12:50.162Z,4.8
2019-05-05T08:14:50.150Z,5.0
2019-05-05T08:16:50.382Z,5.0
2019-05-05T08:18:50.283Z,4.7
2019-05-05T08:20:50.379Z,5.0
2019-05-05T08:22:49.596Z,5.1
2019-05-05T08:24:49.655Z,4.6
2019-05-05T08:26:49.944Z,4.9
2019-05-05T08:28:50.116Z,4.9
2019-05-05T08:30:50.251Z,4.9
2019-05-05T08:32:50.439Z,4.5
2019-05-05T08:34:58.024Z,4.4
2019-05-05T08:36:49.972Z,4.1
2019-05-05T08:38:50.067Z,4.1
2019-05-05T08:40:50.153Z,3.8
2019-05-05T08:42:50.202Z,4.0
2019-05-05T08:44:50.357Z,3.8
2019-05-05T08:46:49.566Z,3.5
2019-05-05T08:48:49.635Z,3.5
2019-05-05T08:50:49.758Z,4.0
2019-05-05T08:52:49.828Z,3.8
2019-05-05T08:54:49.847Z,3.8
2019-05-05T08:56:49.929Z,3.7
2019-05-05T08:58:50.125Z,3.7
2019-05-05T09:00:50.231Z,3.8
2019-05-05T09:02:50.343Z,3.7
2019-05-05T09:04:49.859Z,3.4
2019-05-05T09:06:49.974Z,3.4
2019-05-05T09:08:50.090Z,3.5
2019-05-05T09:10:52.166Z,3.5
2019-05-05T09:12:50.345Z,3.7
2019-05-05T09:14:50.427Z,3.6
2019-05-05T09:16:49.709Z,3.6
2019-05-05T09:18:49.759Z,3.5
2019-05-05T09:20:49.875Z,3.4
2019-05-05T09:22:49.976Z,3.9
2019-05-05T09:24:49.974Z,4.0
2019-05-05T09:26:50.122Z,4.0
2019-05-05T09:28:50.239Z,3.8
2019-05-05T09:30:50.237Z,3.8
2019-05-05T09:32:50.319Z,3.8
2019-05-05T09:34:49.721Z,3.5
2019-05-05T09:36:49.979Z,3.5
2019-05-05T09:38:50.039Z,3.4
2019-05-05T09:40:50.026Z,3.6
2019-05-05T09:42:50.139Z,3.0
2019-05-05T09:44:50.159Z,3.0
2019-05-05T09:46:50.299Z,3.4
2019-05-05T09:48:50.428Z,2.6
2019-05-05T09:50:49.472Z,2.6
2019-05-05T09:52:49.489Z,3.3
2019-05-05T09:54:49.557Z,3.3
2019-05-05T09:56:49.823Z,3.5
2019-05-05T09:58:49.872Z,2.9
2019-05-05T10:00:49.931Z,2.5
2019-05-05T10:02:50.081Z,2.6
2019-05-05T10:04:50.419Z,2.6
2019-05-05T10:06:49.693Z,2.5
2019-05-05T10:08:49.809Z,2.8
2019-05-05T10:10:49.879Z,2.7
2019-05-05T10:12:52.306Z,2.6
2019-05-05T10:14:50.047Z,2.6
2019-05-05T10:16:50.243Z,3.0
2019-05-05T10:18:50.336Z,2.6
2019-05-05T10:20:50.420Z,2.9
2019-05-05T10:22:49.485Z,2.9
2019-05-05T10:24:49.521Z,2.8
2019-05-05T10:26:49.689Z,3.0
2019-05-05T10:28:49.722Z,3.3
2019-05-05T10:30:49.734Z,2.6
2019-05-05T10:32:49.730Z,2.6
2019-05-05T10:34:50.215Z,2.6
2019-05-05T10:36:49.504Z,3.1
2019-05-05T10:38:49.484Z,2.9
2019-05-05T10:40:49.713Z,4.0
2019-05-05T10:42:49.821Z,4.0
2019-05-05T10:44:49.904Z,3.1
2019-05-05T10:46:50.130Z,2.9
2019-05-05T10:48:50.255Z,2.9
2019-05-05T10:50:50.359Z,2.9
2019-05-05T10:52:50.465Z,2.9
2019-05-05T10:54:49.475Z,3.0
2019-05-05T10:56:49.696Z,2.8
2019-05-05T10:58:49.667Z,3.0
2019-05-05T11:00:49.725Z,2.8
2019-05-05T11:02:50.026Z,2.8
2019-05-05T11:04:50.383Z,2.4
2019-05-05T11:06:49.642Z,2.0
2019-05-05T11:08:49.616Z,2.4
2019-05-05T11:10:49.656Z,2.4
2019-05-05T11:12:49.714Z,2.5
2019-05-05T11:14:49.789Z,2.9
2019-05-05T11:16:50.009Z,2.6
2019-05-05T11:18:50.077Z,2.5
2019-05-05T11:20:50.130Z,2.9
2019-05-05T11:22:50.211Z,2.9
2019-05-05T11:24:58.075Z,3.7
2019-05-05T11:26:49.692Z,2.4
2019-05-05T11:28:49.745Z,2.4
2019-05-05T11:30:49.833Z,2.4
2019-05-05T11:32:49.921Z,2.6
2019-05-05T11:34:50.250Z,2.4
2019-05-05T11:36:50.381Z,3.2
2019-05-05T11:38:49.482Z,2.3
2019-05-05T11:40:49.480Z,2.3
2019-05-05T11:42:49.634Z,2.3
2019-05-05T11:44:49.754Z,2.3
2019-05-05T11:46:50.124Z,2.4
2019-05-05T11:48:50.179Z,2.5
2019-05-05T11:50:50.297Z,2.5
2019-05-05T11:52:50.361Z,2.0
2019-05-05T11:54:50.379Z,2.2
2019-05-05T11:56:49.654Z,2.1
2019-05-05T11:58:49.680Z,2.5
2019-05-05T12:00:49.691Z,2.5
2019-05-05T12:02:49.755Z,2.6
2019-05-05T12:04:50.214Z,2.7
2019-05-05T12:06:50.423Z,2.8
2019-05-05T12:08:49.533Z,2.8
2019-05-05T12:10:49.627Z,2.6
2019-05-05T12:12:49.836Z,2.4
2019-05-05T12:14:49.826Z,2.6
2019-05-05T12:16:50.167Z,2.6
2019-05-05T12:18:50.198Z,2.4
2019-05-05T12:20:50.275Z,2.6
2019-05-05T12:22:50.392Z,2.5
2019-05-05T12:24:49.451Z,2.4
2019-05-05T12:26:49.594Z,2.4
2019-05-05T12:28:49.692Z,2.2
2019-05-05T12:30:50.143Z,2.4
2019-05-05T12:32:50.224Z,2.7
2019-05-05T12:34:49.777Z,2.3
2019-05-05T12:36:49.971Z,2.6
2019-05-05T12:38:50.010Z,2.6
2019-05-05T12:40:49.998Z,2.1
2019-05-05T12:42:50.068Z,5.4
2019-05-05T12:44:50.028Z,2.3
2019-05-05T12:46:50.307Z,2.5
2019-05-05T12:48:50.288Z,2.5
2019-05-05T12:50:50.363Z,2.3
2019-05-05T12:52:49.499Z,2.6
2019-05-05T12:54:49.571Z,2.9
2019-05-05T12:56:49.751Z,2.7
2019-05-05T12:58:50.141Z,2.7
2019-05-05T13:00:50.202Z,2.9
2019-05-05T13:02:50.257Z,2.7
2019-05-05T13:04:49.705Z,2.6
2019-05-05T13:06:49.786Z,3.6
2019-05-05T13:08:49.909Z,3.6
2019-05-05T13:10:49.924Z,2.7
2019-05-05T13:12:49.980Z,2.5
2019-05-05T13:14:50.055Z,2.6
2019-05-05T13:16:52.868Z,2.6
2019-05-05T13:18:50.115Z,2.7
2019-05-05T13:20:50.248Z,2.6
2019-05-05T13:22:50.298Z,2.2
2019-05-05T13:24:50.353Z,2.4
2019-05-05T13:26:49.848Z,2.4
2019-05-05T13:28:49.905Z,2.9
2019-05-05T13:30:50.011Z,2.1
2019-05-05T13:32:50.216Z,2.3
2019-05-05T13:34:49.442Z,2.2
2019-05-05T13:36:49.617Z,2.2
2019-05-05T13:38:51.983Z,2.4
2019-05-05T13:40:49.568Z,2.4
2019-05-05T13:42:49.711Z,2.0
2019-05-05T13:44:49.716Z,2.7
2019-05-05T13:46:49.991Z,2.7
2019-05-05T13:48:49.979Z,2.3
2019-05-05T13:50:50.000Z,2.1
2019-05-05T13:52:50.056Z,2.1
2019-05-05T13:54:50.130Z,2.0
2019-05-05T13:56:50.267Z,2.0
2019-05-05T13:58:50.261Z,2.2
2019-05-05T14:00:50.336Z,2.2
2019-05-05T14:02:50.324Z,1.8
2019-05-05T14:04:49.773Z,1.8
2019-05-05T14:06:49.987Z,2.7
2019-05-05T14:08:50.053Z,1.9
2019-05-05T14:10:50.169Z,1.7
2019-05-05T14:12:50.292Z,1.9
2019-05-05T14:14:50.239Z,1.9
2019-05-05T14:16:50.424Z,1.9
2019-05-05T14:18:49.507Z,1.9
2019-05-05T14:20:49.558Z,1.9
2019-05-05T14:22:51.198Z,2.8
2019-05-05T14:24:50.368Z,2.8
2019-05-05T14:26:49.558Z,1.9
2019-05-05T14:28:49.518Z,2.1
2019-05-05T14:30:49.590Z,1.7
2019-05-05T14:32:49.605Z,2.8
2019-05-05T14:34:50.120Z,2.8
2019-05-05T14:36:50.227Z,1.9
2019-05-05T14:38:50.258Z,1.7
2019-05-05T14:40:50.270Z,1.9
2019-05-05T14:42:50.234Z,1.9
2019-05-05T14:44:50.261Z,1.6
2019-05-05T14:46:49.516Z,1.7
2019-05-05T14:48:49.624Z,2.1
2019-05-05T14:50:49.638Z,1.6
2019-05-05T14:52:49.760Z,1.6
2019-05-05T14:54:49.762Z,1.9
2019-05-05T14:56:50.116Z,1.7
2019-05-05T14:58:50.178Z,1.8
2019-05-05T15:00:50.193Z,3.2
2019-05-05T15:02:50.249Z,3.2
2019-05-05T15:04:49.635Z,1.8
2019-05-05T15:06:49.876Z,1.8
2019-05-05T15:08:49.969Z,1.8
2019-05-05T15:10:49.964Z,2.0
2019-05-05T15:12:49.962Z,2.0
2019-05-05T15:14:50.014Z,1.9
2019-05-05T15:16:50.234Z,2.1
2019-05-05T15:18:50.252Z,2.1
2019-05-05T15:20:51.760Z,1.8
2019-05-05T15:22:50.258Z,1.8
2019-05-05T15:24:50.239Z,2.0
2019-05-05T15:26:52.628Z,1.8
2019-05-05T15:28:59.169Z,2.2
2019-05-05T15:30:50.312Z,2.2
2019-05-05T15:32:49.457Z,1.7
2019-05-05T15:34:50.078Z,1.9
2019-05-05T15:36:50.315Z,2.4
2019-05-05T15:38:49.560Z,1.7
2019-05-05T15:40:49.758Z,1.9
2019-05-05T15:42:49.877Z,1.9
2019-05-05T15:44:49.877Z,1.6
2019-05-05T15:46:50.244Z,2.0
2019-05-05T15:48:50.327Z,2.0
2019-05-05T15:50:50.333Z,2.0
2019-05-05T15:52:49.453Z,2.3
2019-05-05T15:54:49.569Z,1.8
2019-05-05T15:57:01.815Z,1.8
2019-05-05T15:58:50.362Z,1.9
2019-05-05T16:00:50.407Z,1.9
2019-05-05T16:02:49.469Z,1.8
2019-05-05T16:04:49.874Z,1.6
2019-05-05T16:06:50.144Z,1.9
2019-05-05T16:08:50.176Z,2.3
2019-05-05T16:10:50.180Z,2.3
2019-05-05T16:12:50.295Z,2.4
2019-05-05T16:14:50.394Z,1.7
2019-05-05T16:16:49.636Z,2.0
2019-05-05T16:19:01.840Z,1.9
2019-05-05T16:20:50.037Z,1.9
2019-05-05T16:22:50.215Z,3.3
2019-05-05T16:24:51.410Z,1.8
2019-05-05T16:26:49.905Z,1.8
2019-05-05T16:28:49.985Z,1.6
2019-05-05T16:30:50.120Z,1.6
2019-05-05T16:32:50.146Z,1.5
2019-05-05T16:34:49.454Z,1.7
2019-05-05T16:36:49.692Z,1.8
2019-05-05T16:38:49.637Z,1.8
2019-05-05T16:40:49.783Z,2.2
2019-05-05T16:42:49.913Z,2.2
2019-05-05T16:44:49.978Z,2.7
2019-05-05T16:46:50.151Z,2.0
2019-05-05T16:48:50.150Z,2.0
2019-05-05T16:50:50.162Z,2.0
2019-05-05T16:52:50.324Z,1.7
2019-05-05T16:54:50.349Z,1.7
2019-05-05T16:56:49.608Z,1.6
2019-05-05T16:58:49.775Z,1.7
2019-05-05T17:00:49.893Z,1.5
2019-05-05T17:02:49.946Z,1.6
2019-05-05T17:04:50.311Z,2.3
2019-05-05T17:06:49.495Z,2.3
2019-05-05T17:08:49.586Z,1.5
2019-05-05T17:10:49.692Z,2.0
2019-05-05T17:12:49.730Z,2.7
2019-05-05T17:14:49.783Z,3.0
2019-05-05T17:16:49.916Z,1.5
2019-05-05T17:18:49.948Z,1.5
2019-05-05T17:20:50.021Z,1.8
2019-05-05T17:22:50.062Z,2.4
2019-05-05T17:24:50.155Z,1.6
2019-05-05T17:26:50.233Z,1.6
2019-05-05T17:28:50.213Z,1.9
2019-05-05T17:30:50.227Z,1.7
2019-05-05T17:32:50.338Z,2.0
2019-05-05T17:34:49.779Z,1.8
2019-05-05T17:36:49.942Z,1.8
2019-05-05T17:38:50.142Z,1.9
2019-05-05T17:40:50.192Z,1.9
2019-05-05T17:42:50.211Z,2.0
2019-05-05T17:44:49.618Z,1.4
2019-05-05T17:46:49.853Z,1.4
2019-05-05T17:48:50.179Z,2.2
2019-05-05T17:50:50.326Z,1.7
2019-05-05T17:52:49.898Z,1.6
2019-05-05T17:54:49.966Z,1.6
2019-05-05T17:56:52.370Z,1.6
2019-05-05T17:58:50.177Z,2.7
2019-05-05T18:00:50.311Z,1.5
2019-05-05T18:02:50.331Z,2.1
2019-05-05T18:04:49.778Z,2.1
2019-05-05T18:06:50.022Z,2.2
2019-05-05T18:08:50.079Z,1.7
2019-05-05T18:10:50.296Z,1.9
2019-05-05T18:12:50.387Z,1.9
2019-05-05T18:14:49.881Z,2.3
2019-05-05T18:16:50.121Z,2.1
2019-05-05T18:18:50.203Z,1.9
2019-05-05T18:20:50.237Z,2.6
2019-05-05T18:22:50.269Z,2.2
2019-05-05T18:24:50.365Z,2.2
2019-05-05T18:26:49.610Z,3.0
2019-05-05T18:28:49.620Z,3.7
2019-05-05T18:30:49.765Z,2.1
2019-05-05T18:32:49.914Z,2.1
2019-05-05T18:34:50.394Z,2.1
2019-05-05T18:36:49.672Z,2.0
2019-05-05T18:38:49.765Z,1.9
2019-05-05T18:40:49.782Z,2.0
2019-05-05T18:42:49.837Z,2.6
2019-05-05T18:44:49.820Z,2.6
2019-05-05T18:46:50.119Z,2.0
2019-05-05T18:48:50.131Z,2.8
2019-05-05T18:50:50.157Z,2.2
2019-05-05T18:52:50.346Z,3.0
2019-05-05T18:54:50.433Z,3.0
2019-05-05T18:56:49.695Z,2.4
2019-05-05T18:58:49.748Z,2.9
2019-05-05T19:00:49.811Z,4.0
2019-05-05T19:02:49.947Z,4.0
2019-05-05T19:04:50.291Z,2.2
2019-05-05T19:06:49.576Z,5.1
2019-05-05T19:08:54.081Z,2.8
2019-05-05T19:10:50.265Z,3.0
2019-05-05T19:12:50.830Z,3.0
2019-05-05T19:14:50.117Z,4.6
2019-05-05T19:16:50.242Z,2.6
2019-05-05T19:18:50.274Z,2.7
2019-05-05T19:20:50.431Z,5.0
2019-05-05T19:22:49.756Z,5.0
2019-05-05T19:24:49.987Z,3.5
2019-05-05T19:26:50.289Z,3.4
2019-05-05T19:28:50.424Z,3.0
2019-05-05T19:30:50.455Z,2.9
2019-05-05T19:32:49.573Z,2.9
2019-05-05T19:34:50.004Z,3.9
2019-05-05T19:36:50.295Z,4.8
2019-05-05T19:38:50.391Z,4.9
2019-05-05T19:40:49.559Z,3.7
2019-05-05T19:42:50.006Z,3.7
2019-05-05T19:44:50.174Z,4.6
2019-05-05T19:46:50.392Z,3.9
2019-05-05T19:48:49.528Z,3.9
2019-05-05T19:50:49.577Z,4.3
2019-05-05T19:52:49.582Z,4.5
2019-05-05T19:54:49.648Z,4.5
2019-05-05T19:56:49.934Z,3.9
2019-05-05T19:58:58.875Z,4.8
2019-05-05T20:00:50.034Z,4.8
2019-05-05T20:03:01.278Z,3.8
2019-05-05T20:04:49.631Z,3.8
2019-05-05T20:06:49.910Z,5.0
2019-05-05T20:08:50.170Z,4.5
2019-05-05T20:10:50.301Z,4.5
2019-05-05T20:12:50.378Z,3.2
2019-05-05T20:14:49.497Z,2.9
2019-05-05T20:16:49.795Z,2.9
2019-05-05T20:18:50.289Z,4.4
2019-05-05T20:21:00.800Z,4.4
2019-05-05T20:22:50.158Z,3.1
2019-05-05T20:24:50.167Z,4.0
2019-05-05T20:26:49.493Z,3.5
2019-05-05T20:28:49.580Z,6.6
2019-05-05T20:30:49.717Z,6.6
2019-05-05T20:32:49.737Z,4.4
2019-05-05T20:34:50.142Z,4.0
2019-05-05T20:36:49.518Z,6.6
2019-05-05T20:38:49.543Z,6.6
2019-05-05T20:40:49.640Z,3.5
2019-05-05T20:42:49.780Z,5.2
2019-05-05T20:44:49.870Z,4.1
2019-05-05T20:46:50.075Z,4.1
2019-05-05T20:48:50.094Z,4.1
2019-05-05T20:50:50.120Z,4.1
2019-05-05T20:52:50.205Z,6.2
2019-05-05T20:54:50.381Z,4.2
2019-05-05T20:56:49.553Z,4.2
2019-05-05T20:58:49.561Z,4.0
2019-05-05T21:00:50.083Z,6.0
2019-05-05T21:02:50.144Z,4.5
2019-05-05T21:04:49.573Z,4.0
2019-05-05T21:06:49.616Z,4.5
2019-05-05T21:08:49.663Z,4.5
2019-05-05T21:10:49.654Z,4.4
2019-05-05T21:12:49.703Z,4.5
2019-05-05T21:14:49.768Z,4.5
2019-05-05T21:16:49.943Z,4.3
2019-05-05T21:18:49.945Z,4.3
2019-05-05T21:20:50.194Z,4.6
2019-05-05T21:22:50.205Z,4.3
2019-05-05T21:24:50.317Z,4.3
2019-05-05T21:26:49.517Z,4.2
2019-05-05T21:28:49.474Z,4.2
2019-05-05T21:30:49.472Z,4.9
2019-05-05T21:32:49.700Z,5.5
2019-05-05T21:34:50.211Z,4.0
2019-05-05T21:36:49.516Z,4.0
2019-05-05T21:38:49.618Z,4.5
2019-05-05T21:40:49.585Z,4.1
2019-05-05T21:42:49.737Z,4.4
2019-05-05T21:44:49.908Z,4.6
2019-05-05T21:46:50.075Z,4.6
2019-05-05T21:48:50.228Z,3.8
2019-05-05T21:50:50.224Z,4.0
2019-05-05T21:52:50.243Z,4.0
2019-05-05T21:54:50.371Z,4.2
2019-05-05T21:56:49.573Z,4.2
2019-05-05T21:58:50.192Z,4.1
2019-05-05T22:00:50.270Z,6.0
2019-05-05T22:02:50.092Z,4.5
2019-05-05T22:04:49.474Z,4.3
2019-05-05T22:06:49.688Z,4.3
2019-05-05T22:08:49.740Z,4.7
2019-05-05T22:10:49.841Z,4.6
2019-05-05T22:12:49.889Z,4.6
2019-05-05T22:14:49.905Z,5.2
2019-05-05T22:16:50.091Z,4.4
2019-05-05T22:18:50.123Z,4.8
2019-05-05T22:20:50.148Z,5.8
2019-05-05T22:22:50.182Z,4.5
2019-05-05T22:24:50.290Z,4.5
2019-05-05T22:26:49.489Z,4.5
2019-05-05T22:28:49.619Z,4.4
2019-05-05T22:30:49.642Z,7.2
2019-05-05T22:32:49.781Z,6.3
2019-05-05T22:34:50.152Z,6.3
2019-05-05T22:36:50.326Z,4.9
2019-05-05T22:38:50.419Z,5.4
2019-05-05T22:40:49.530Z,5.5
2019-05-05T22:42:49.626Z,5.1
2019-05-05T22:44:49.614Z,5.1
2019-05-05T22:46:49.816Z,6.1
2019-05-05T22:48:49.823Z,5.7
2019-05-05T22:50:49.897Z,5.1
2019-05-05T22:52:49.932Z,5.9
2019-05-05T22:54:49.918Z,5.9
2019-05-05T22:56:50.149Z,6.5
2019-05-05T22:58:50.173Z,6.5
2019-05-05T23:00:50.241Z,6.8
2019-05-05T23:02:50.250Z,6.8
2019-05-05T23:04:49.618Z,5.9
2019-05-05T23:06:49.792Z,5.8
2019-05-05T23:08:49.915Z,7.0
2019-05-05T23:10:49.976Z,6.6
2019-05-05T23:12:50.045Z,6.6
2019-05-05T23:14:50.051Z,6.8
2019-05-05T23:16:50.100Z,6.6
2019-05-05T23:18:50.124Z,6.6
2019-05-05T23:20:50.218Z,6.6
2019-05-05T23:22:49.632Z,6.6
2019-05-05T23:24:49.744Z,6.5
2019-05-05T23:26:49.961Z,6.6
2019-05-05T23:28:50.038Z,9.2
2019-05-05T23:30:50.100Z,9.2
2019-05-05T23:32:50.136Z,9.5
2019-05-05T23:34:49.463Z,7.0
2019-05-05T23:36:49.657Z,7.2
2019-05-05T23:38:49.602Z,7.2
2019-05-05T23:40:49.627Z,7.2
2019-05-05T23:42:49.616Z,7.0
2019-05-05T23:44:49.732Z,6.6
2019-05-05T23:46:49.936Z,5.9
2019-05-05T23:48:50.022Z,6.1
2019-05-05T23:50:50.030Z,5.7
2019-05-05T23:52:50.076Z,5.7
2019-05-05T23:54:49.903Z,6.8
2019-05-05T23:56:49.835Z,6.3
2019-05-05T23:58:49.710Z,6.9
